PWSweather.com
Personal Weather Stations
Station Observations
KVAGLENALL
West Henrico, Glen Allen, VA 23060-6503

West HenricoGlen Allen, VA 23060-6503

Lat: 37.6554, Lon: -77.5693

Elevation: 273

Station Type: Davis Vantage Pro II

www.glenallenweather.com

High Low Average
Temperature 88.5°F31.4°C 72.8°F22.7°C 80.9°F27.2°C
Dew Point 77.1°F25.1°C 70.9°F21.6°C 73.6°F23.1°C
Winds 16.0 mph 25.7 kmh 0.1 mph 0.2 kmh 6.0 mph S9.7 kmh S
Wind Gusts 22.3 mph35.9 kmh 2.1 mph3.4 kmh 10.0 mph16.1 kmh
Humidity 94% 65% 80%
Pressure 29.91 in1012.9 mb 29.81 in1009.5 mb -
Precipitation 0.00 in0.0 mm - -
Hour Temp Dew Point Humidity Winds Wind Gusts Pressure Precip Precip Rate Daily Precip Total
12:00 AM 74.6°F23.7°C 72.1°F22.3°C 92% 1.0 mph SSE1.6 kmh SSE 1.1 mph1.8 kmh 29.88 in1011.9 mb 0.00 in0.0 mm 0.00 in0.0 mm 0.00 in0.0 mm
12:15 AM 74.4°F23.6°C 71.9°F22.2°C 92% 0.1 mph SSE0.2 kmh SSE 2.1 mph3.4 kmh 29.88 in1011.9 mb 0.00 in0.0 mm 0.00 in0.0 mm 0.00 in0.0 mm
12:30 AM 74.3°F23.5°C 71.8°F22.1°C 92% 1.0 mph S1.6 kmh S 3.1 mph5.0 kmh 29.88 in1011.9 mb 0.00 in0.0 mm 0.00 in0.0 mm 0.00 in0.0 mm
12:45 AM 74.1°F23.4°C 71.9°F22.2°C 93% 0.1 mph S0.2 kmh S 0.1 mph0.2 kmh 29.88 in1011.9 mb 0.00 in0.0 mm 0.00 in0.0 mm 0.00 in0.0 mm
01:00 AM 73.9°F23.3°C 71.7°F22.1°C 93% 0.1 mph SE0.2 kmh SE 2.1 mph3.4 kmh 29.88 in1011.9 mb 0.00 in0.0 mm 0.00 in0.0 mm 0.00 in0.0 mm
01:15 AM 73.9°F23.3°C 71.7°F22.1°C 93% 0.1 mph S0.2 kmh S 3.1 mph5.0 kmh 29.87 in1011.5 mb 0.00 in0.0 mm 0.00 in0.0 mm 0.00 in0.0 mm
01:30 AM 73.8°F23.2°C 71.6°F22.0°C 93% 3.0 mph S4.8 kmh S 4.1 mph6.6 kmh 29.87 in1011.5 mb 0.00 in0.0 mm 0.00 in0.0 mm 0.00 in0.0 mm
01:45 AM 73.7°F23.2°C 71.5°F21.9°C 93% 0.1 mph S0.2 kmh S 3.1 mph5.0 kmh 29.86 in1011.2 mb 0.00 in0.0 mm 0.00 in0.0 mm 0.00 in0.0 mm
02:00 AM 73.6°F23.1°C 71.4°F21.9°C 93% 1.0 mph S1.6 kmh S 5.1 mph8.2 kmh 29.86 in1011.2 mb 0.00 in0.0 mm 0.00 in0.0 mm 0.00 in0.0 mm
02:15 AM 73.5°F23.1°C 71.3°F21.8°C 93% 3.0 mph S4.8 kmh S 5.1 mph8.2 kmh 29.86 in1011.2 mb 0.00 in0.0 mm 0.00 in0.0 mm 0.00 in0.0 mm
02:30 AM 73.4°F23.0°C 71.5°F21.9°C 94% 3.0 mph S4.8 kmh S 4.1 mph6.6 kmh 29.85 in1010.8 mb 0.00 in0.0 mm 0.00 in0.0 mm 0.00 in0.0 mm
02:45 AM 73.3°F22.9°C 71.4°F21.9°C 94% 2.0 mph SSE3.2 kmh SSE 5.1 mph8.2 kmh 29.85 in1010.8 mb 0.00 in0.0 mm 0.00 in0.0 mm 0.00 in0.0 mm
03:00 AM 73.2°F22.9°C 71.3°F21.8°C 94% 3.0 mph S4.8 kmh S 5.1 mph8.2 kmh 29.85 in1010.8 mb 0.00 in0.0 mm 0.00 in0.0 mm 0.00 in0.0 mm
03:15 AM 73.0°F22.8°C 71.1°F21.7°C 94% 0.1 mph SSE0.2 kmh SSE 2.1 mph3.4 kmh 29.85 in1010.8 mb 0.00 in0.0 mm 0.00 in0.0 mm 0.00 in0.0 mm
03:30 AM 73.1°F22.8°C 71.2°F21.8°C 94% 1.0 mph S1.6 kmh S 2.1 mph3.4 kmh 29.85 in1010.8 mb 0.00 in0.0 mm 0.00 in0.0 mm 0.00 in0.0 mm
03:45 AM 73.1°F22.8°C 71.2°F21.8°C 94% 0.1 mph S0.2 kmh S 2.1 mph3.4 kmh 29.85 in1010.8 mb 0.00 in0.0 mm 0.00 in0.0 mm 0.00 in0.0 mm
04:00 AM 73.1°F22.8°C 71.2°F21.8°C 94% 3.0 mph S4.8 kmh S 3.1 mph5.0 kmh 29.85 in1010.8 mb 0.00 in0.0 mm 0.00 in0.0 mm 0.00 in0.0 mm
04:15 AM 73.1°F22.8°C 71.2°F21.8°C 94% 1.0 mph S1.6 kmh S 4.1 mph6.6 kmh 29.85 in1010.8 mb 0.00 in0.0 mm 0.00 in0.0 mm 0.00 in0.0 mm
04:30 AM 73.2°F22.9°C 71.3°F21.8°C 94% 0.1 mph SSW0.2 kmh SSW 4.1 mph6.6 kmh 29.85 in1010.8 mb 0.00 in0.0 mm 0.00 in0.0 mm 0.00 in0.0 mm
04:45 AM 73.1°F22.8°C 71.2°F21.8°C 94% 1.0 mph SSW1.6 kmh SSW 5.1 mph8.2 kmh 29.86 in1011.2 mb 0.00 in0.0 mm 0.00 in0.0 mm 0.00 in0.0 mm
05:00 AM 73.1°F22.8°C 71.2°F21.8°C 94% 1.0 mph S1.6 kmh S 4.1 mph6.6 kmh 29.86 in1011.2 mb 0.00 in0.0 mm 0.00 in0.0 mm 0.00 in0.0 mm
05:15 AM 72.8°F22.7°C 70.9°F21.6°C 94% 3.0 mph SSE4.8 kmh SSE 3.1 mph5.0 kmh 29.87 in1011.5 mb 0.00 in0.0 mm 0.00 in0.0 mm 0.00 in0.0 mm
05:30 AM 72.8°F22.7°C 70.9°F21.6°C 94% 0.1 mph S0.2 kmh S 4.1 mph6.6 kmh 29.88 in1011.9 mb 0.00 in0.0 mm 0.00 in0.0 mm 0.00 in0.0 mm
05:45 AM 73.1°F22.8°C 71.2°F21.8°C 94% 0.1 mph S0.2 kmh S 4.1 mph6.6 kmh 29.89 in1012.2 mb 0.00 in0.0 mm 0.00 in0.0 mm 0.00 in0.0 mm
06:00 AM 73.3°F22.9°C 71.4°F21.9°C 94% 4.1 mph S6.6 kmh S 7.1 mph11.4 kmh 29.89 in1012.2 mb 0.00 in0.0 mm 0.00 in0.0 mm 0.00 in0.0 mm
06:15 AM 73.6°F23.1°C 71.7°F22.1°C 94% 4.1 mph S6.6 kmh S 5.1 mph8.2 kmh 29.90 in1012.5 mb 0.00 in0.0 mm 0.00 in0.0 mm 0.00 in0.0 mm
06:30 AM 74.0°F23.3°C 72.1°F22.3°C 94% 3.0 mph S4.8 kmh S 4.1 mph6.6 kmh 29.90 in1012.5 mb 0.00 in0.0 mm 0.00 in0.0 mm 0.00 in0.0 mm
06:45 AM 74.3°F23.5°C 72.4°F22.4°C 94% 0.1 mph SSW0.2 kmh SSW 4.1 mph6.6 kmh 29.91 in1012.9 mb 0.00 in0.0 mm 0.00 in0.0 mm 0.00 in0.0 mm
07:00 AM 74.5°F23.6°C 72.3°F22.4°C 93% 0.1 mph S0.2 kmh S 7.1 mph11.4 kmh 29.91 in1012.9 mb 0.00 in0.0 mm 0.00 in0.0 mm 0.00 in0.0 mm
07:15 AM 74.9°F23.8°C 72.7°F22.6°C 93% 3.0 mph SSW4.8 kmh SSW 13.2 mph21.2 kmh 29.91 in1012.9 mb 0.00 in0.0 mm 0.00 in0.0 mm 0.00 in0.0 mm
07:30 AM 75.3°F24.1°C 72.8°F22.7°C 92% 12.1 mph SSW19.5 kmh SSW 12.2 mph19.6 kmh 29.91 in1012.9 mb 0.00 in0.0 mm 0.00 in0.0 mm 0.00 in0.0 mm
07:45 AM 75.8°F24.3°C 73.0°F22.8°C 91% 3.0 mph S4.8 kmh S 5.1 mph8.2 kmh 29.91 in1012.9 mb 0.00 in0.0 mm 0.00 in0.0 mm 0.00 in0.0 mm
08:00 AM 76.2°F24.6°C 73.0°F22.8°C 90% 5.1 mph SSW8.2 kmh SSW 10.1 mph16.3 kmh 29.91 in1012.9 mb 0.00 in0.0 mm 0.00 in0.0 mm 0.00 in0.0 mm
08:15 AM 76.4°F24.7°C 73.2°F22.9°C 90% 3.0 mph S4.8 kmh S 12.2 mph19.6 kmh 29.91 in1012.9 mb 0.00 in0.0 mm 0.00 in0.0 mm 0.00 in0.0 mm
08:30 AM 76.8°F24.9°C 73.3°F22.9°C 89% 3.0 mph SW4.8 kmh SW 9.1 mph14.6 kmh 29.91 in1012.9 mb 0.00 in0.0 mm 0.00 in0.0 mm 0.00 in0.0 mm
08:45 AM 77.6°F25.3°C 73.8°F23.2°C 88% 3.0 mph S4.8 kmh S 5.1 mph8.2 kmh 29.91 in1012.9 mb 0.00 in0.0 mm 0.00 in0.0 mm 0.00 in0.0 mm
09:00 AM 77.9°F25.5°C 73.7°F23.2°C 87% 4.1 mph S6.6 kmh S 5.1 mph8.2 kmh 29.91 in1012.9 mb 0.00 in0.0 mm 0.00 in0.0 mm 0.00 in0.0 mm
09:15 AM 78.4°F25.8°C 74.2°F23.4°C 87% 6.1 mph S9.8 kmh S 6.1 mph9.8 kmh 29.91 in1012.9 mb 0.00 in0.0 mm 0.00 in0.0 mm 0.00 in0.0 mm
09:30 AM 80.0°F26.7°C 74.7°F23.7°C 84% 7.1 mph S11.4 kmh S 13.2 mph21.2 kmh 29.91 in1012.9 mb 0.00 in0.0 mm 0.00 in0.0 mm 0.00 in0.0 mm
09:45 AM 80.2°F26.8°C 74.6°F23.7°C 83% 14.1 mph SSW22.7 kmh SSW 14.2 mph22.9 kmh 29.91 in1012.9 mb 0.00 in0.0 mm 0.00 in0.0 mm 0.00 in0.0 mm
10:00 AM 81.1°F27.3°C 75.1°F23.9°C 82% 6.1 mph SSW9.8 kmh SSW 7.1 mph11.4 kmh 29.90 in1012.5 mb 0.00 in0.0 mm 0.00 in0.0 mm 0.00 in0.0 mm
10:15 AM 81.1°F27.3°C 75.5°F24.2°C 83% 5.1 mph S8.2 kmh S 5.1 mph8.2 kmh 29.90 in1012.5 mb 0.00 in0.0 mm 0.00 in0.0 mm 0.00 in0.0 mm
10:30 AM 81.1°F27.3°C 75.1°F23.9°C 82% 3.0 mph S4.8 kmh S 11.2 mph18.0 kmh 29.90 in1012.5 mb 0.00 in0.0 mm 0.00 in0.0 mm 0.00 in0.0 mm
10:45 AM 81.2°F27.3°C 74.8°F23.8°C 81% 5.1 mph S8.2 kmh S 7.1 mph11.4 kmh 29.90 in1012.5 mb 0.00 in0.0 mm 0.00 in0.0 mm 0.00 in0.0 mm
11:00 AM 81.8°F27.7°C 75.0°F23.9°C 80% 7.1 mph S11.4 kmh S 13.2 mph21.2 kmh 29.90 in1012.5 mb 0.00 in0.0 mm 0.00 in0.0 mm 0.00 in0.0 mm
11:15 AM 82.1°F27.8°C 75.3°F24.1°C 80% 4.1 mph SSW6.6 kmh SSW 13.2 mph21.2 kmh 29.90 in1012.5 mb 0.00 in0.0 mm 0.00 in0.0 mm 0.00 in0.0 mm
11:30 AM 82.6°F28.1°C 75.4°F24.1°C 79% 5.1 mph SSW8.2 kmh SSW 7.1 mph11.4 kmh 29.89 in1012.2 mb 0.00 in0.0 mm 0.00 in0.0 mm 0.00 in0.0 mm
11:45 AM 82.7°F28.2°C 74.8°F23.8°C 77% 12.1 mph SSW19.5 kmh SSW 14.2 mph22.9 kmh 29.89 in1012.2 mb 0.00 in0.0 mm 0.00 in0.0 mm 0.00 in0.0 mm
12:00 PM 83.2°F28.4°C 75.6°F24.2°C 78% 16.0 mph SSW25.7 kmh SSW 17.2 mph27.7 kmh 29.89 in1012.2 mb 0.00 in0.0 mm 0.00 in0.0 mm 0.00 in0.0 mm
12:15 PM 84.3°F29.1°C 75.9°F24.4°C 76% 6.1 mph SW9.8 kmh SW 14.2 mph22.9 kmh 29.89 in1012.2 mb 0.00 in0.0 mm 0.00 in0.0 mm 0.00 in0.0 mm
12:30 PM 84.8°F29.3°C 75.6°F24.2°C 74% 4.1 mph SE6.6 kmh SE 12.2 mph19.6 kmh 29.88 in1011.9 mb 0.00 in0.0 mm 0.00 in0.0 mm 0.00 in0.0 mm
12:45 PM 85.5°F29.7°C 77.1°F25.1°C 76% 5.1 mph S8.2 kmh S 14.2 mph22.9 kmh 29.88 in1011.9 mb 0.00 in0.0 mm 0.00 in0.0 mm 0.00 in0.0 mm
01:00 PM 85.9°F29.9°C 76.3°F24.6°C 73% 9.1 mph S14.6 kmh S 19.2 mph30.9 kmh 29.88 in1011.9 mb 0.00 in0.0 mm 0.00 in0.0 mm 0.00 in0.0 mm
01:15 PM 86.2°F30.1°C 76.2°F24.6°C 72% 14.1 mph S22.7 kmh S 18.2 mph29.3 kmh 29.88 in1011.9 mb 0.00 in0.0 mm 0.00 in0.0 mm 0.00 in0.0 mm
01:30 PM 86.6°F30.3°C 76.1°F24.5°C 71% 6.1 mph SSE9.8 kmh SSE 11.2 mph18.0 kmh 29.87 in1011.5 mb 0.00 in0.0 mm 0.00 in0.0 mm 0.00 in0.0 mm
01:45 PM 86.9°F30.5°C 75.5°F24.2°C 69% 6.1 mph SW9.8 kmh SW 19.2 mph30.9 kmh 29.87 in1011.5 mb 0.00 in0.0 mm 0.00 in0.0 mm 0.00 in0.0 mm
02:00 PM 87.6°F30.9°C 76.2°F24.6°C 69% 6.1 mph SW9.8 kmh SW 12.2 mph19.6 kmh 29.87 in1011.5 mb 0.00 in0.0 mm 0.00 in0.0 mm 0.00 in0.0 mm
02:15 PM 87.9°F31.1°C 76.1°F24.5°C 68% 4.1 mph S6.6 kmh S 12.2 mph19.6 kmh 29.86 in1011.2 mb 0.00 in0.0 mm 0.00 in0.0 mm 0.00 in0.0 mm
02:30 PM 88.0°F31.1°C 76.6°F24.8°C 69% 5.1 mph SW8.2 kmh SW 12.2 mph19.6 kmh 29.85 in1010.8 mb 0.00 in0.0 mm 0.00 in0.0 mm 0.00 in0.0 mm
02:45 PM 88.1°F31.2°C 75.8°F24.3°C 67% 7.1 mph SSE11.4 kmh SSE 17.2 mph27.7 kmh 29.85 in1010.8 mb 0.00 in0.0 mm 0.00 in0.0 mm 0.00 in0.0 mm
03:00 PM 88.5°F31.4°C 75.3°F24.1°C 65% 3.0 mph SW4.8 kmh SW 15.2 mph24.5 kmh 29.85 in1010.8 mb 0.00 in0.0 mm 0.00 in0.0 mm 0.00 in0.0 mm
03:15 PM 88.2°F31.2°C 75.9°F24.4°C 67% 7.1 mph S11.4 kmh S 10.1 mph16.3 kmh 29.85 in1010.8 mb 0.00 in0.0 mm 0.00 in0.0 mm 0.00 in0.0 mm
03:30 PM 88.1°F31.2°C 76.3°F24.6°C 68% 14.1 mph SSW22.7 kmh SSW 16.2 mph26.1 kmh 29.84 in1010.5 mb 0.00 in0.0 mm 0.00 in0.0 mm 0.00 in0.0 mm
03:45 PM 87.1°F30.6°C 75.7°F24.3°C 69% 13.1 mph SSW21.1 kmh SSW 15.2 mph24.5 kmh 29.84 in1010.5 mb 0.00 in0.0 mm 0.00 in0.0 mm 0.00 in0.0 mm
04:00 PM 88.1°F31.2°C 76.3°F24.6°C 68% 5.1 mph SW8.2 kmh SW 11.2 mph18.0 kmh 29.83 in1010.2 mb 0.00 in0.0 mm 0.00 in0.0 mm 0.00 in0.0 mm
04:15 PM 88.2°F31.2°C 75.5°F24.2°C 66% 5.1 mph S8.2 kmh S 19.2 mph30.9 kmh 29.83 in1010.2 mb 0.00 in0.0 mm 0.00 in0.0 mm 0.00 in0.0 mm
04:30 PM 87.8°F31.0°C 75.1°F23.9°C 66% 6.1 mph SSW9.8 kmh SSW 16.2 mph26.1 kmh 29.83 in1010.2 mb 0.00 in0.0 mm 0.00 in0.0 mm 0.00 in0.0 mm
04:45 PM 87.7°F30.9°C 75.4°F24.1°C 67% 7.1 mph S11.4 kmh S 13.2 mph21.2 kmh 29.82 in1009.8 mb 0.00 in0.0 mm 0.00 in0.0 mm 0.00 in0.0 mm
05:00 PM 87.6°F30.9°C 75.8°F24.3°C 68% 10.1 mph S16.3 kmh S 15.2 mph24.5 kmh 29.82 in1009.8 mb 0.00 in0.0 mm 0.00 in0.0 mm 0.00 in0.0 mm
05:15 PM 87.5°F30.8°C 75.2°F24.0°C 67% 7.1 mph S11.4 kmh S 16.2 mph26.1 kmh 29.82 in1009.8 mb 0.00 in0.0 mm 0.00 in0.0 mm 0.00 in0.0 mm
05:30 PM 87.8°F31.0°C 76.0°F24.4°C 68% 2.0 mph S3.2 kmh S 13.2 mph21.2 kmh 29.81 in1009.5 mb 0.00 in0.0 mm 0.00 in0.0 mm 0.00 in0.0 mm
05:45 PM 87.5°F30.8°C 74.8°F23.8°C 66% 10.1 mph S16.3 kmh S 18.2 mph29.3 kmh 29.81 in1009.5 mb 0.00 in0.0 mm 0.00 in0.0 mm 0.00 in0.0 mm
06:00 PM 87.7°F30.9°C 75.4°F24.1°C 67% 2.0 mph S3.2 kmh S 13.2 mph21.2 kmh 29.81 in1009.5 mb 0.00 in0.0 mm 0.00 in0.0 mm 0.00 in0.0 mm
06:15 PM 87.9°F31.1°C 75.2°F24.0°C 66% 9.1 mph S14.6 kmh S 22.3 mph35.9 kmh 29.82 in1009.8 mb 0.00 in0.0 mm 0.00 in0.0 mm 0.00 in0.0 mm
06:30 PM 87.2°F30.7°C 74.5°F23.6°C 66% 7.1 mph SSW11.4 kmh SSW 11.2 mph18.0 kmh 29.82 in1009.8 mb 0.00 in0.0 mm 0.00 in0.0 mm 0.00 in0.0 mm
06:45 PM 86.8°F30.4°C 75.0°F23.9°C 68% 11.1 mph SSW17.9 kmh SSW 11.2 mph18.0 kmh 29.82 in1009.8 mb 0.00 in0.0 mm 0.00 in0.0 mm 0.00 in0.0 mm
07:00 PM 86.3°F30.2°C 74.5°F23.6°C 68% 3.0 mph SSW4.8 kmh SSW 11.2 mph18.0 kmh 29.82 in1009.8 mb 0.00 in0.0 mm 0.00 in0.0 mm 0.00 in0.0 mm
07:15 PM 86.1°F30.1°C 73.9°F23.3°C 67% 11.1 mph SSW17.9 kmh SSW 13.2 mph21.2 kmh 29.82 in1009.8 mb 0.00 in0.0 mm 0.00 in0.0 mm 0.00 in0.0 mm
07:30 PM 86.0°F30.0°C 74.7°F23.7°C 69% 12.1 mph SSW19.5 kmh SSW 14.2 mph22.9 kmh 29.83 in1010.2 mb 0.00 in0.0 mm 0.00 in0.0 mm 0.00 in0.0 mm
07:45 PM 85.5°F29.7°C 74.6°F23.7°C 70% 5.1 mph SSW8.2 kmh SSW 13.2 mph21.2 kmh 29.83 in1010.2 mb 0.00 in0.0 mm 0.00 in0.0 mm 0.00 in0.0 mm
08:00 PM 85.0°F29.4°C 74.6°F23.7°C 71% 13.1 mph SSW21.1 kmh SSW 22.3 mph35.9 kmh 29.83 in1010.2 mb 0.00 in0.0 mm 0.00 in0.0 mm 0.00 in0.0 mm
08:15 PM 84.6°F29.2°C 74.2°F23.4°C 71% 12.1 mph S19.5 kmh S 14.2 mph22.9 kmh 29.83 in1010.2 mb 0.00 in0.0 mm 0.00 in0.0 mm 0.00 in0.0 mm
08:30 PM 84.3°F29.1°C 74.3°F23.5°C 72% 12.1 mph SSW19.5 kmh SSW 12.2 mph19.6 kmh 29.83 in1010.2 mb 0.00 in0.0 mm 0.00 in0.0 mm 0.00 in0.0 mm
08:45 PM 83.9°F28.8°C 74.3°F23.5°C 73% 11.1 mph SSW17.9 kmh SSW 11.2 mph18.0 kmh 29.84 in1010.5 mb 0.00 in0.0 mm 0.00 in0.0 mm 0.00 in0.0 mm
09:00 PM 83.6°F28.7°C 74.1°F23.4°C 73% 5.1 mph SSW8.2 kmh SSW 10.1 mph16.3 kmh 29.84 in1010.5 mb 0.00 in0.0 mm 0.00 in0.0 mm 0.00 in0.0 mm
09:15 PM 83.3°F28.5°C 73.8°F23.2°C 73% 4.1 mph S6.6 kmh S 11.2 mph18.0 kmh 29.85 in1010.8 mb 0.00 in0.0 mm 0.00 in0.0 mm 0.00 in0.0 mm
09:30 PM 82.9°F28.3°C 73.4°F23.0°C 73% 12.1 mph SSW19.5 kmh SSW 12.2 mph19.6 kmh 29.86 in1011.2 mb 0.00 in0.0 mm 0.00 in0.0 mm 0.00 in0.0 mm
09:45 PM 82.8°F28.2°C 73.3°F22.9°C 73% 13.1 mph SSW21.1 kmh SSW 15.2 mph24.5 kmh 29.87 in1011.5 mb 0.00 in0.0 mm 0.00 in0.0 mm 0.00 in0.0 mm
10:00 PM 82.4°F28.0°C 72.9°F22.7°C 73% 6.1 mph S9.8 kmh S 7.1 mph11.4 kmh 29.87 in1011.5 mb 0.00 in0.0 mm 0.00 in0.0 mm 0.00 in0.0 mm
10:15 PM 81.8°F27.7°C 72.3°F22.4°C 73% 9.1 mph SSW14.6 kmh SSW 9.1 mph14.6 kmh 29.87 in1011.5 mb 0.00 in0.0 mm 0.00 in0.0 mm 0.00 in0.0 mm
10:30 PM 81.7°F27.6°C 72.2°F22.3°C 73% 7.1 mph SW11.4 kmh SW 9.1 mph14.6 kmh 29.87 in1011.5 mb 0.00 in0.0 mm 0.00 in0.0 mm 0.00 in0.0 mm
10:45 PM 81.5°F27.5°C 71.6°F22.0°C 72% 5.1 mph S8.2 kmh S 10.1 mph16.3 kmh 29.87 in1011.5 mb 0.00 in0.0 mm 0.00 in0.0 mm 0.00 in0.0 mm
11:00 PM 81.3°F27.4°C 71.4°F21.9°C 72% 6.1 mph SSW9.8 kmh SSW 16.2 mph26.1 kmh 29.87 in1011.5 mb 0.00 in0.0 mm 0.00 in0.0 mm 0.00 in0.0 mm
11:15 PM 81.0°F27.2°C 71.1°F21.7°C 72% 4.1 mph SSW6.6 kmh SSW 15.2 mph24.5 kmh 29.88 in1011.9 mb 0.00 in0.0 mm 0.00 in0.0 mm 0.00 in0.0 mm
11:30 PM 80.9°F27.2°C 71.4°F21.9°C 73% 3.0 mph S4.8 kmh S 11.2 mph18.0 kmh 29.88 in1011.9 mb 0.00 in0.0 mm 0.00 in0.0 mm 0.00 in0.0 mm
11:45 PM 80.6°F27.0°C 71.6°F22.0°C 74% 11.1 mph S17.9 kmh S 12.2 mph19.6 kmh 29.88 in1011.9 mb 0.00 in0.0 mm 0.00 in0.0 mm 0.00 in0.0 mm